Westminster, Maryland
Current Conditions -  °F | °C
As of 1:05 PM on Tuesday 21 Oct 2014 (Local Time) from KDMW Reporting Station
Scattered Clouds Scattered Clouds  
Wind Chill: 63°   Ceiling: Unl
Heat Index: 63°   Visibility: 10mi
Dew Point: 52°   Wind: 7mph
Humidity: 68%   Direction: 310°NW
Pressure: 29.84"   Gusts: NA
Location:  39.57°N, 76.99°W
Report Text: KDMW 211705Z AUTO 31006KT 10SM SCT032 17/11 A2984 RMK AO2 LTG DSNT SE
Loading
Personal Weather Stations






























Interactive Weather Map
Tropical Storm Tracking
New forecast layout! Learn more

10-Day Weather Forecast

Advertisements
Track Severe Weather on mobile